sensor_id;sensor_type;location;lat;lon;timestamp;P1;durP1;ratioP1;P2;durP2;ratioP2
23573;SDS011;11965;53.640;10.050;2023-03-31T00:01:04;7.88;;;6.90;;
23573;SDS011;11965;53.640;10.050;2023-03-31T00:03:31;7.83;;;6.92;;
23573;SDS011;11965;53.640;10.050;2023-03-31T00:06:03;7.10;;;6.53;;
23573;SDS011;11965;53.640;10.050;2023-03-31T00:08:32;7.54;;;6.89;;
23573;SDS011;11965;53.640;10.050;2023-03-31T00:11:01;7.70;;;6.84;;
23573;SDS011;11965;53.640;10.050;2023-03-31T00:13:31;7.41;;;6.72;;
23573;SDS011;11965;53.640;10.050;2023-03-31T00:15:59;8.00;;;7.27;;
23573;SDS011;11965;53.640;10.050;2023-03-31T00:18:27;7.97;;;7.11;;
23573;SDS011;11965;53.640;10.050;2023-03-31T00:20:58;8.19;;;7.21;;
23573;SDS011;11965;53.640;10.050;2023-03-31T00:23:34;7.83;;;6.75;;
23573;SDS011;11965;53.640;10.050;2023-03-31T00:26:00;7.40;;;6.45;;
23573;SDS011;11965;53.640;10.050;2023-03-31T00:28:27;7.16;;;6.40;;
23573;SDS011;11965;53.640;10.050;2023-03-31T00:30:58;7.05;;;6.11;;
23573;SDS011;11965;53.640;10.050;2023-03-31T00:33:26;6.68;;;5.90;;
23573;SDS011;11965;53.640;10.050;2023-03-31T00:35:54;6.27;;;5.57;;
23573;SDS011;11965;53.640;10.050;2023-03-31T00:38:21;6.46;;;5.47;;
23573;SDS011;11965;53.640;10.050;2023-03-31T00:40:49;7.08;;;5.80;;
23573;SDS011;11965;53.640;10.050;2023-03-31T00:43:25;7.12;;;5.75;;
23573;SDS011;11965;53.640;10.050;2023-03-31T00:45:57;6.98;;;5.69;;
23573;SDS011;11965;53.640;10.050;2023-03-31T00:48:37;7.01;;;5.69;;
23573;SDS011;11965;53.640;10.050;2023-03-31T00:51:11;7.16;;;5.69;;
23573;SDS011;11965;53.640;10.050;2023-03-31T00:53:40;7.62;;;5.94;;
23573;SDS011;11965;53.640;10.050;2023-03-31T00:56:10;7.61;;;5.84;;
23573;SDS011;11965;53.640;10.050;2023-03-31T00:58:40;7.41;;;5.69;;
23573;SDS011;11965;53.640;10.050;2023-03-31T01:01:12;7.58;;;5.86;;
23573;SDS011;11965;53.640;10.050;2023-03-31T01:03:43;6.83;;;5.25;;
23573;SDS011;11965;53.640;10.050;2023-03-31T01:06:13;6.67;;;5.16;;
23573;SDS011;11965;53.640;10.050;2023-03-31T01:08:44;6.72;;;5.10;;
23573;SDS011;11965;53.640;10.050;2023-03-31T01:11:15;7.17;;;5.45;;
23573;SDS011;11965;53.640;10.050;2023-03-31T01:13:46;7.84;;;5.76;;
23573;SDS011;11965;53.640;10.050;2023-03-31T01:16:17;7.53;;;5.48;;
23573;SDS011;11965;53.640;10.050;2023-03-31T01:18:44;7.52;;;5.50;;
23573;SDS011;11965;53.640;10.050;2023-03-31T01:27:37;7.83;;;5.57;;
23573;SDS011;11965;53.640;10.050;2023-03-31T01:36:49;7.94;;;5.72;;
23573;SDS011;11965;53.640;10.050;2023-03-31T01:39:58;7.94;;;5.59;;
23573;SDS011;11965;53.640;10.050;2023-03-31T01:42:41;7.49;;;5.32;;
23573;SDS011;11965;53.640;10.050;2023-03-31T01:45:20;7.77;;;5.55;;
23573;SDS011;11965;53.640;10.050;2023-03-31T01:47:59;7.24;;;5.22;;
23573;SDS011;11965;53.640;10.050;2023-03-31T01:50:34;7.18;;;5.36;;
23573;SDS011;11965;53.640;10.050;2023-03-31T01:53:10;7.42;;;5.48;;
23573;SDS011;11965;53.640;10.050;2023-03-31T01:55:49;7.77;;;5.67;;
23573;SDS011;11965;53.640;10.050;2023-03-31T01:58:27;6.38;;;4.66;;
23573;SDS011;11965;53.640;10.050;2023-03-31T02:01:01;6.59;;;4.88;;
23573;SDS011;11965;53.640;10.050;2023-03-31T02:03:34;6.28;;;4.63;;
23573;SDS011;11965;53.640;10.050;2023-03-31T02:06:07;7.61;;;5.61;;
23573;SDS011;11965;53.640;10.050;2023-03-31T02:08:40;6.84;;;5.03;;
23573;SDS011;11965;53.640;10.050;2023-03-31T02:11:13;6.68;;;4.90;;
23573;SDS011;11965;53.640;10.050;2023-03-31T02:13:42;6.64;;;4.89;;
23573;SDS011;11965;53.640;10.050;2023-03-31T02:16:13;6.26;;;4.74;;
23573;SDS011;11965;53.640;10.050;2023-03-31T02:18:48;6.27;;;4.75;;
23573;SDS011;11965;53.640;10.050;2023-03-31T02:21:27;6.05;;;4.64;;
23573;SDS011;11965;53.640;10.050;2023-03-31T02:23:56;6.77;;;4.96;;
23573;SDS011;11965;53.640;10.050;2023-03-31T02:26:29;6.87;;;4.96;;
23573;SDS011;11965;53.640;10.050;2023-03-31T02:29:03;6.69;;;5.02;;
23573;SDS011;11965;53.640;10.050;2023-03-31T02:31:33;6.94;;;5.17;;
23573;SDS011;11965;53.640;10.050;2023-03-31T02:34:09;6.73;;;5.11;;
23573;SDS011;11965;53.640;10.050;2023-03-31T02:36:37;6.92;;;5.28;;
23573;SDS011;11965;53.640;10.050;2023-03-31T02:39:07;6.61;;;5.20;;
23573;SDS011;11965;53.640;10.050;2023-03-31T02:41:41;6.63;;;5.44;;
23573;SDS011;11965;53.640;10.050;2023-03-31T02:44:09;6.00;;;5.08;;
23573;SDS011;11965;53.640;10.050;2023-03-31T02:46:36;6.55;;;5.46;;
23573;SDS011;11965;53.640;10.050;2023-03-31T02:49:05;6.34;;;5.32;;
23573;SDS011;11965;53.640;10.050;2023-03-31T02:51:40;5.89;;;5.08;;
23573;SDS011;11965;53.640;10.050;2023-03-31T02:54:42;6.23;;;5.51;;
23573;SDS011;11965;53.640;10.050;2023-03-31T03:00:39;5.72;;;5.17;;
23573;SDS011;11965;53.640;10.050;2023-03-31T03:03:25;6.46;;;5.84;;
23573;SDS011;11965;53.640;10.050;2023-03-31T03:06:04;5.47;;;5.05;;
23573;SDS011;11965;53.640;10.050;2023-03-31T03:08:55;5.59;;;5.22;;
23573;SDS011;11965;53.640;10.050;2023-03-31T03:11:37;5.83;;;5.45;;
23573;SDS011;11965;53.640;10.050;2023-03-31T03:14:17;5.96;;;5.47;;
23573;SDS011;11965;53.640;10.050;2023-03-31T03:16:56;6.04;;;5.57;;
23573;SDS011;11965;53.640;10.050;2023-03-31T03:19:28;6.16;;;5.84;;
23573;SDS011;11965;53.640;10.050;2023-03-31T03:21:55;6.03;;;5.77;;
23573;SDS011;11965;53.640;10.050;2023-03-31T03:24:23;6.39;;;6.16;;
23573;SDS011;11965;53.640;10.050;2023-03-31T03:26:53;5.95;;;5.81;;
23573;SDS011;11965;53.640;10.050;2023-03-31T03:29:21;6.19;;;5.96;;
23573;SDS011;11965;53.640;10.050;2023-03-31T03:31:48;6.42;;;6.15;;
23573;SDS011;11965;53.640;10.050;2023-03-31T03:34:16;6.62;;;6.34;;
23573;SDS011;11965;53.640;10.050;2023-03-31T03:36:44;6.73;;;6.45;;
23573;SDS011;11965;53.640;10.050;2023-03-31T03:39:12;6.61;;;6.35;;
23573;SDS011;11965;53.640;10.050;2023-03-31T03:41:39;6.59;;;6.30;;
23573;SDS011;11965;53.640;10.050;2023-03-31T03:44:06;6.83;;;6.67;;
23573;SDS011;11965;53.640;10.050;2023-03-31T03:46:33;6.72;;;6.50;;
23573;SDS011;11965;53.640;10.050;2023-03-31T03:49:00;6.33;;;6.20;;
23573;SDS011;11965;53.640;10.050;2023-03-31T03:51:28;6.54;;;6.40;;
23573;SDS011;11965;53.640;10.050;2023-03-31T03:53:55;6.69;;;6.50;;
23573;SDS011;11965;53.640;10.050;2023-03-31T03:56:22;6.73;;;6.43;;
23573;SDS011;11965;53.640;10.050;2023-03-31T03:58:49;6.30;;;6.17;;
23573;SDS011;11965;53.640;10.050;2023-03-31T04:01:16;6.37;;;6.36;;
23573;SDS011;11965;53.640;10.050;2023-03-31T04:03:43;6.44;;;6.39;;
23573;SDS011;11965;53.640;10.050;2023-03-31T04:06:10;6.17;;;6.08;;
23573;SDS011;11965;53.640;10.050;2023-03-31T04:08:38;6.03;;;5.93;;
23573;SDS011;11965;53.640;10.050;2023-03-31T04:11:08;6.73;;;6.62;;
23573;SDS011;11965;53.640;10.050;2023-03-31T04:13:39;6.53;;;6.44;;
23573;SDS011;11965;53.640;10.050;2023-03-31T04:16:06;6.49;;;6.39;;
23573;SDS011;11965;53.640;10.050;2023-03-31T04:18:33;6.47;;;6.46;;
23573;SDS011;11965;53.640;10.050;2023-03-31T04:21:01;6.40;;;6.40;;
23573;SDS011;11965;53.640;10.050;2023-03-31T04:23:32;6.50;;;6.49;;
23573;SDS011;11965;53.640;10.050;2023-03-31T04:26:04;6.38;;;6.38;;
23573;SDS011;11965;53.640;10.050;2023-03-31T04:28:33;6.66;;;6.64;;
23573;SDS011;11965;53.640;10.050;2023-03-31T04:31:00;7.28;;;7.19;;
23573;SDS011;11965;53.640;10.050;2023-03-31T04:33:28;6.89;;;6.78;;
23573;SDS011;11965;53.640;10.050;2023-03-31T04:35:55;6.76;;;6.76;;
23573;SDS011;11965;53.640;10.050;2023-03-31T04:38:22;7.73;;;7.73;;
23573;SDS011;11965;53.640;10.050;2023-03-31T04:40:52;7.36;;;7.33;;
23573;SDS011;11965;53.640;10.050;2023-03-31T04:43:20;7.03;;;7.02;;
23573;SDS011;11965;53.640;10.050;2023-03-31T04:45:47;8.25;;;8.24;;
23573;SDS011;11965;53.640;10.050;2023-03-31T04:48:14;7.62;;;7.62;;
23573;SDS011;11965;53.640;10.050;2023-03-31T04:50:41;7.79;;;7.77;;
23573;SDS011;11965;53.640;10.050;2023-03-31T04:53:08;7.65;;;7.63;;
23573;SDS011;11965;53.640;10.050;2023-03-31T04:55:35;8.31;;;8.25;;
23573;SDS011;11965;53.640;10.050;2023-03-31T04:58:02;8.30;;;8.29;;
23573;SDS011;11965;53.640;10.050;2023-03-31T05:00:31;8.39;;;8.35;;
23573;SDS011;11965;53.640;10.050;2023-03-31T05:02:58;8.08;;;8.08;;
23573;SDS011;11965;53.640;10.050;2023-03-31T05:05:26;9.03;;;8.97;;
23573;SDS011;11965;53.640;10.050;2023-03-31T05:07:53;8.32;;;8.32;;
23573;SDS011;11965;53.640;10.050;2023-03-31T05:10:20;8.60;;;8.60;;
23573;SDS011;11965;53.640;10.050;2023-03-31T05:12:47;9.60;;;9.59;;
23573;SDS011;11965;53.640;10.050;2023-03-31T05:15:14;9.62;;;9.62;;
23573;SDS011;11965;53.640;10.050;2023-03-31T05:17:43;9.67;;;9.66;;
23573;SDS011;11965;53.640;10.050;2023-03-31T05:20:10;9.33;;;9.33;;
23573;SDS011;11965;53.640;10.050;2023-03-31T05:22:39;9.76;;;9.68;;
23573;SDS011;11965;53.640;10.050;2023-03-31T05:25:07;9.87;;;9.86;;
23573;SDS011;11965;53.640;10.050;2023-03-31T05:27:36;9.66;;;9.66;;
23573;SDS011;11965;53.640;10.050;2023-03-31T05:30:03;10.78;;;10.77;;
23573;SDS011;11965;53.640;10.050;2023-03-31T05:32:32;10.16;;;10.09;;
23573;SDS011;11965;53.640;10.050;2023-03-31T05:35:00;9.99;;;9.84;;
23573;SDS011;11965;53.640;10.050;2023-03-31T05:37:27;9.64;;;9.61;;
23573;SDS011;11965;53.640;10.050;2023-03-31T05:39:54;10.13;;;10.09;;
23573;SDS011;11965;53.640;10.050;2023-03-31T05:42:21;9.94;;;9.94;;
23573;SDS011;11965;53.640;10.050;2023-03-31T05:44:48;9.63;;;9.61;;
23573;SDS011;11965;53.640;10.050;2023-03-31T05:47:15;9.37;;;9.34;;
23573;SDS011;11965;53.640;10.050;2023-03-31T05:49:42;9.41;;;9.39;;
23573;SDS011;11965;53.640;10.050;2023-03-31T05:52:11;10.02;;;9.93;;
23573;SDS011;11965;53.640;10.050;2023-03-31T05:54:38;9.96;;;9.89;;
23573;SDS011;11965;53.640;10.050;2023-03-31T05:57:06;9.44;;;9.44;;
23573;SDS011;11965;53.640;10.050;2023-03-31T05:59:34;9.39;;;9.35;;
23573;SDS011;11965;53.640;10.050;2023-03-31T06:02:01;9.95;;;9.83;;
23573;SDS011;11965;53.640;10.050;2023-03-31T06:04:28;9.58;;;9.53;;
23573;SDS011;11965;53.640;10.050;2023-03-31T06:06:55;9.35;;;9.34;;
23573;SDS011;11965;53.640;10.050;2023-03-31T06:09:24;11.48;;;11.47;;
23573;SDS011;11965;53.640;10.050;2023-03-31T06:11:52;9.49;;;9.49;;
23573;SDS011;11965;53.640;10.050;2023-03-31T06:14:19;9.44;;;9.42;;
23573;SDS011;11965;53.640;10.050;2023-03-31T06:16:46;9.68;;;9.63;;
23573;SDS011;11965;53.640;10.050;2023-03-31T06:19:13;9.50;;;9.43;;
23573;SDS011;11965;53.640;10.050;2023-03-31T06:21:40;9.19;;;9.14;;
23573;SDS011;11965;53.640;10.050;2023-03-31T06:24:07;9.76;;;9.70;;
23573;SDS011;11965;53.640;10.050;2023-03-31T06:26:36;8.98;;;8.89;;
23573;SDS011;11965;53.640;10.050;2023-03-31T06:29:03;8.93;;;8.87;;
23573;SDS011;11965;53.640;10.050;2023-03-31T06:31:30;8.99;;;8.99;;
23573;SDS011;11965;53.640;10.050;2023-03-31T06:33:57;8.56;;;8.56;;
23573;SDS011;11965;53.640;10.050;2023-03-31T06:36:24;8.32;;;8.30;;
23573;SDS011;11965;53.640;10.050;2023-03-31T06:38:50;8.76;;;8.69;;
23573;SDS011;11965;53.640;10.050;2023-03-31T06:41:17;8.05;;;8.03;;
23573;SDS011;11965;53.640;10.050;2023-03-31T06:43:47;7.91;;;7.90;;
23573;SDS011;11965;53.640;10.050;2023-03-31T06:46:15;8.33;;;8.29;;
23573;SDS011;11965;53.640;10.050;2023-03-31T06:48:43;8.32;;;8.25;;
23573;SDS011;11965;53.640;10.050;2023-03-31T06:51:10;8.30;;;8.27;;
23573;SDS011;11965;53.640;10.050;2023-03-31T06:53:37;8.10;;;8.10;;
23573;SDS011;11965;53.640;10.050;2023-03-31T06:56:04;7.94;;;7.94;;
23573;SDS011;11965;53.640;10.050;2023-03-31T06:58:32;8.51;;;8.48;;
23573;SDS011;11965;53.640;10.050;2023-03-31T07:01:02;8.62;;;8.51;;
23573;SDS011;11965;53.640;10.050;2023-03-31T07:03:30;7.87;;;7.75;;
23573;SDS011;11965;53.640;10.050;2023-03-31T07:05:57;8.46;;;8.35;;
23573;SDS011;11965;53.640;10.050;2023-03-31T07:08:25;7.91;;;7.87;;
23573;SDS011;11965;53.640;10.050;2023-03-31T07:10:53;7.97;;;7.91;;
23573;SDS011;11965;53.640;10.050;2023-03-31T07:13:22;7.91;;;7.85;;
23573;SDS011;11965;53.640;10.050;2023-03-31T07:15:50;8.13;;;8.01;;
23573;SDS011;11965;53.640;10.050;2023-03-31T07:18:19;8.01;;;7.86;;
23573;SDS011;11965;53.640;10.050;2023-03-31T07:20:50;8.07;;;7.96;;
23573;SDS011;11965;53.640;10.050;2023-03-31T07:23:17;7.51;;;7.50;;
23573;SDS011;11965;53.640;10.050;2023-03-31T07:25:45;8.12;;;8.11;;
23573;SDS011;11965;53.640;10.050;2023-03-31T07:28:13;7.88;;;7.86;;
23573;SDS011;11965;53.640;10.050;2023-03-31T07:30:40;7.92;;;7.89;;
23573;SDS011;11965;53.640;10.050;2023-03-31T07:33:08;7.70;;;7.65;;
23573;SDS011;11965;53.640;10.050;2023-03-31T07:35:38;7.48;;;7.45;;
23573;SDS011;11965;53.640;10.050;2023-03-31T07:38:06;7.73;;;7.71;;
23573;SDS011;11965;53.640;10.050;2023-03-31T07:40:34;7.83;;;7.80;;
23573;SDS011;11965;53.640;10.050;2023-03-31T07:43:01;7.93;;;7.86;;
23573;SDS011;11965;53.640;10.050;2023-03-31T07:45:29;8.23;;;8.21;;
23573;SDS011;11965;53.640;10.050;2023-03-31T07:47:56;7.86;;;7.80;;
23573;SDS011;11965;53.640;10.050;2023-03-31T07:50:23;7.70;;;7.69;;
23573;SDS011;11965;53.640;10.050;2023-03-31T07:52:54;7.98;;;7.96;;
23573;SDS011;11965;53.640;10.050;2023-03-31T07:55:21;7.57;;;7.51;;
23573;SDS011;11965;53.640;10.050;2023-03-31T07:57:50;8.16;;;8.06;;
23573;SDS011;11965;53.640;10.050;2023-03-31T08:00:17;7.40;;;7.33;;
23573;SDS011;11965;53.640;10.050;2023-03-31T08:02:45;7.60;;;7.60;;
23573;SDS011;11965;53.640;10.050;2023-03-31T08:05:13;7.64;;;7.63;;
23573;SDS011;11965;53.640;10.050;2023-03-31T08:07:42;7.91;;;7.91;;
23573;SDS011;11965;53.640;10.050;2023-03-31T08:10:14;8.04;;;8.04;;
23573;SDS011;11965;53.640;10.050;2023-03-31T08:12:43;7.73;;;7.73;;
23573;SDS011;11965;53.640;10.050;2023-03-31T08:15:10;7.83;;;7.82;;
23573;SDS011;11965;53.640;10.050;2023-03-31T08:17:37;8.39;;;8.39;;
23573;SDS011;11965;53.640;10.050;2023-03-31T08:20:06;7.59;;;7.59;;
23573;SDS011;11965;53.640;10.050;2023-03-31T08:22:34;7.86;;;7.86;;
23573;SDS011;11965;53.640;10.050;2023-03-31T08:25:01;7.02;;;7.02;;
23573;SDS011;11965;53.640;10.050;2023-03-31T08:27:32;6.91;;;6.91;;
23573;SDS011;11965;53.640;10.050;2023-03-31T08:30:00;6.02;;;6.02;;
23573;SDS011;11965;53.640;10.050;2023-03-31T08:32:29;6.25;;;6.25;;
23573;SDS011;11965;53.640;10.050;2023-03-31T08:34:56;5.71;;;5.71;;
23573;SDS011;11965;53.640;10.050;2023-03-31T08:37:23;5.86;;;5.86;;
23573;SDS011;11965;53.640;10.050;2023-03-31T08:39:52;5.84;;;5.84;;
23573;SDS011;11965;53.640;10.050;2023-03-31T08:42:20;5.72;;;5.72;;
23573;SDS011;11965;53.640;10.050;2023-03-31T08:45:02;6.31;;;6.31;;
23573;SDS011;11965;53.640;10.050;2023-03-31T08:47:35;6.20;;;6.20;;
23573;SDS011;11965;53.640;10.050;2023-03-31T08:50:06;6.61;;;6.61;;
23573;SDS011;11965;53.640;10.050;2023-03-31T08:52:40;6.89;;;6.89;;
23573;SDS011;11965;53.640;10.050;2023-03-31T08:55:16;7.15;;;7.15;;
23573;SDS011;11965;53.640;10.050;2023-03-31T08:57:53;7.44;;;7.44;;
23573;SDS011;11965;53.640;10.050;2023-03-31T09:00:28;7.48;;;7.48;;
23573;SDS011;11965;53.640;10.050;2023-03-31T09:03:09;7.26;;;7.26;;
23573;SDS011;11965;53.640;10.050;2023-03-31T09:05:48;6.92;;;6.92;;
23573;SDS011;11965;53.640;10.050;2023-03-31T09:08:30;6.83;;;6.83;;
23573;SDS011;11965;53.640;10.050;2023-03-31T09:11:06;6.67;;;6.67;;
23573;SDS011;11965;53.640;10.050;2023-03-31T09:13:42;6.79;;;6.79;;
23573;SDS011;11965;53.640;10.050;2023-03-31T09:16:31;6.52;;;6.52;;
23573;SDS011;11965;53.640;10.050;2023-03-31T09:19:09;6.49;;;6.49;;
23573;SDS011;11965;53.640;10.050;2023-03-31T09:21:42;6.74;;;6.74;;
23573;SDS011;11965;53.640;10.050;2023-03-31T09:24:13;6.36;;;6.36;;
23573;SDS011;11965;53.640;10.050;2023-03-31T09:26:45;6.16;;;6.16;;
23573;SDS011;11965;53.640;10.050;2023-03-31T09:29:19;5.90;;;5.90;;
23573;SDS011;11965;53.640;10.050;2023-03-31T09:31:52;5.76;;;5.76;;
23573;SDS011;11965;53.640;10.050;2023-03-31T09:34:23;5.60;;;5.60;;
23573;SDS011;11965;53.640;10.050;2023-03-31T09:36:52;5.04;;;5.04;;
23573;SDS011;11965;53.640;10.050;2023-03-31T09:39:19;4.87;;;4.87;;
23573;SDS011;11965;53.640;10.050;2023-03-31T09:41:48;4.47;;;4.47;;
23573;SDS011;11965;53.640;10.050;2023-03-31T09:44:22;4.92;;;4.92;;
23573;SDS011;11965;53.640;10.050;2023-03-31T09:46:54;4.55;;;4.55;;
23573;SDS011;11965;53.640;10.050;2023-03-31T09:49:26;3.92;;;3.92;;
23573;SDS011;11965;53.640;10.050;2023-03-31T09:52:00;3.89;;;3.89;;
23573;SDS011;11965;53.640;10.050;2023-03-31T09:54:36;3.93;;;3.93;;
23573;SDS011;11965;53.640;10.050;2023-03-31T09:57:13;3.98;;;3.98;;
23573;SDS011;11965;53.640;10.050;2023-03-31T09:59:49;4.06;;;4.06;;
23573;SDS011;11965;53.640;10.050;2023-03-31T10:05:06;4.73;;;4.73;;
23573;SDS011;11965;53.640;10.050;2023-03-31T10:07:48;5.01;;;5.01;;
23573;SDS011;11965;53.640;10.050;2023-03-31T10:10:19;4.76;;;4.76;;
23573;SDS011;11965;53.640;10.050;2023-03-31T10:12:56;5.08;;;5.08;;
23573;SDS011;11965;53.640;10.050;2023-03-31T10:15:25;4.57;;;4.57;;
23573;SDS011;11965;53.640;10.050;2023-03-31T10:17:56;4.72;;;4.72;;
23573;SDS011;11965;53.640;10.050;2023-03-31T10:20:32;4.85;;;4.85;;
23573;SDS011;11965;53.640;10.050;2023-03-31T10:23:03;4.70;;;4.70;;
23573;SDS011;11965;53.640;10.050;2023-03-31T10:25:41;5.09;;;5.09;;
23573;SDS011;11965;53.640;10.050;2023-03-31T10:28:10;4.86;;;4.86;;
23573;SDS011;11965;53.640;10.050;2023-03-31T10:30:45;5.65;;;5.65;;
23573;SDS011;11965;53.640;10.050;2023-03-31T10:33:17;5.66;;;5.66;;
23573;SDS011;11965;53.640;10.050;2023-03-31T10:35:49;5.58;;;5.58;;
23573;SDS011;11965;53.640;10.050;2023-03-31T10:38:23;6.44;;;6.44;;
23573;SDS011;11965;53.640;10.050;2023-03-31T10:40:55;6.67;;;6.67;;
23573;SDS011;11965;53.640;10.050;2023-03-31T10:43:25;6.24;;;6.24;;
23573;SDS011;11965;53.640;10.050;2023-03-31T10:45:55;6.46;;;6.46;;
23573;SDS011;11965;53.640;10.050;2023-03-31T10:48:27;6.19;;;6.19;;
23573;SDS011;11965;53.640;10.050;2023-03-31T10:51:01;6.13;;;6.13;;
23573;SDS011;11965;53.640;10.050;2023-03-31T10:53:38;6.28;;;6.28;;
23573;SDS011;11965;53.640;10.050;2023-03-31T10:56:19;5.87;;;5.87;;
23573;SDS011;11965;53.640;10.050;2023-03-31T11:02:13;5.29;;;5.29;;
23573;SDS011;11965;53.640;10.050;2023-03-31T11:05:13;6.04;;;6.04;;
23573;SDS011;11965;53.640;10.050;2023-03-31T11:07:53;5.95;;;5.95;;
23573;SDS011;11965;53.640;10.050;2023-03-31T11:13:35;5.50;;;5.50;;
23573;SDS011;11965;53.640;10.050;2023-03-31T11:16:13;5.52;;;5.52;;
23573;SDS011;11965;53.640;10.050;2023-03-31T11:18:56;4.87;;;4.87;;
23573;SDS011;11965;53.640;10.050;2023-03-31T11:21:40;4.04;;;4.04;;
23573;SDS011;11965;53.640;10.050;2023-03-31T11:24:22;4.49;;;4.49;;
23573;SDS011;11965;53.640;10.050;2023-03-31T11:27:00;4.44;;;4.44;;
23573;SDS011;11965;53.640;10.050;2023-03-31T11:29:42;3.53;;;3.53;;
23573;SDS011;11965;53.640;10.050;2023-03-31T11:32:25;3.55;;;3.55;;
23573;SDS011;11965;53.640;10.050;2023-03-31T11:35:08;3.22;;;3.22;;
23573;SDS011;11965;53.640;10.050;2023-03-31T11:38:00;3.43;;;3.43;;
23573;SDS011;11965;53.640;10.050;2023-03-31T11:40:48;3.69;;;3.69;;
23573;SDS011;11965;53.640;10.050;2023-03-31T11:43:26;3.75;;;3.75;;
23573;SDS011;11965;53.640;10.050;2023-03-31T11:45:59;4.12;;;4.12;;
23573;SDS011;11965;53.640;10.050;2023-03-31T11:48:34;4.54;;;4.54;;
23573;SDS011;11965;53.640;10.050;2023-03-31T11:51:09;4.21;;;4.21;;
23573;SDS011;11965;53.640;10.050;2023-03-31T11:53:44;4.12;;;4.12;;
23573;SDS011;11965;53.640;10.050;2023-03-31T11:56:13;3.73;;;3.73;;
23573;SDS011;11965;53.640;10.050;2023-03-31T11:58:43;3.54;;;3.54;;
23573;SDS011;11965;53.640;10.050;2023-03-31T12:01:15;3.75;;;3.75;;
23573;SDS011;11965;53.640;10.050;2023-03-31T12:03:55;3.39;;;3.39;;
23573;SDS011;11965;53.640;10.050;2023-03-31T12:06:29;3.31;;;3.31;;
23573;SDS011;11965;53.640;10.050;2023-03-31T12:09:04;3.02;;;3.02;;
23573;SDS011;11965;53.640;10.050;2023-03-31T12:11:39;3.03;;;3.03;;
23573;SDS011;11965;53.640;10.050;2023-03-31T12:14:21;3.44;;;3.44;;
23573;SDS011;11965;53.640;10.050;2023-03-31T12:16:57;2.88;;;2.88;;
23573;SDS011;11965;53.640;10.050;2023-03-31T12:19:32;2.82;;;2.82;;
23573;SDS011;11965;53.640;10.050;2023-03-31T12:22:10;2.71;;;2.71;;
23573;SDS011;11965;53.640;10.050;2023-03-31T12:24:45;3.16;;;3.16;;
23573;SDS011;11965;53.640;10.050;2023-03-31T12:27:13;2.65;;;2.65;;
23573;SDS011;11965;53.640;10.050;2023-03-31T12:29:52;2.49;;;2.49;;
23573;SDS011;11965;53.640;10.050;2023-03-31T12:32:24;2.62;;;2.62;;
23573;SDS011;11965;53.640;10.050;2023-03-31T12:34:56;2.20;;;2.20;;
23573;SDS011;11965;53.640;10.050;2023-03-31T12:40:38;2.78;;;2.78;;
23573;SDS011;11965;53.640;10.050;2023-03-31T12:43:48;2.87;;;2.87;;
23573;SDS011;11965;53.640;10.050;2023-03-31T12:46:39;2.98;;;2.98;;
23573;SDS011;11965;53.640;10.050;2023-03-31T12:49:25;3.09;;;3.09;;
23573;SDS011;11965;53.640;10.050;2023-03-31T12:52:10;3.28;;;3.28;;
23573;SDS011;11965;53.640;10.050;2023-03-31T12:57:48;3.52;;;3.52;;
23573;SDS011;11965;53.640;10.050;2023-03-31T13:00:19;3.61;;;3.61;;
23573;SDS011;11965;53.640;10.050;2023-03-31T13:05:51;5.16;;;5.16;;
23573;SDS011;11965;53.640;10.050;2023-03-31T13:11:16;4.32;;;4.32;;
23573;SDS011;11965;53.640;10.050;2023-03-31T13:13:54;4.25;;;4.25;;
23573;SDS011;11965;53.640;10.050;2023-03-31T13:16:26;4.53;;;4.53;;
23573;SDS011;11965;53.640;10.050;2023-03-31T13:18:54;5.10;;;5.10;;
23573;SDS011;11965;53.640;10.050;2023-03-31T13:21:22;5.09;;;5.09;;
23573;SDS011;11965;53.640;10.050;2023-03-31T13:23:50;5.14;;;5.14;;
23573;SDS011;11965;53.640;10.050;2023-03-31T13:26:34;5.12;;;5.12;;
23573;SDS011;11965;53.640;10.050;2023-03-31T13:29:17;5.07;;;5.07;;
23573;SDS011;11965;53.640;10.050;2023-03-31T13:32:16;4.66;;;4.66;;
23573;SDS011;11965;53.640;10.050;2023-03-31T13:34:48;4.71;;;4.71;;
23573;SDS011;11965;53.640;10.050;2023-03-31T13:37:27;5.02;;;5.02;;
23573;SDS011;11965;53.640;10.050;2023-03-31T13:40:29;4.82;;;4.82;;
23573;SDS011;11965;53.640;10.050;2023-03-31T13:43:43;5.69;;;5.69;;
23573;SDS011;11965;53.640;10.050;2023-03-31T13:46:36;6.08;;;6.08;;
23573;SDS011;11965;53.640;10.050;2023-03-31T13:49:34;5.72;;;5.72;;
23573;SDS011;11965;53.640;10.050;2023-03-31T13:52:30;5.88;;;5.88;;
23573;SDS011;11965;53.640;10.050;2023-03-31T13:55:23;6.14;;;6.14;;
23573;SDS011;11965;53.640;10.050;2023-03-31T13:58:18;6.35;;;6.35;;
23573;SDS011;11965;53.640;10.050;2023-03-31T14:01:01;5.91;;;5.91;;
23573;SDS011;11965;53.640;10.050;2023-03-31T14:04:03;6.01;;;6.01;;
23573;SDS011;11965;53.640;10.050;2023-03-31T14:06:51;6.22;;;6.22;;
23573;SDS011;11965;53.640;10.050;2023-03-31T14:09:22;5.88;;;5.88;;
23573;SDS011;11965;53.640;10.050;2023-03-31T14:11:55;6.58;;;6.58;;
23573;SDS011;11965;53.640;10.050;2023-03-31T14:14:24;6.67;;;6.67;;
23573;SDS011;11965;53.640;10.050;2023-03-31T14:16:51;6.23;;;6.23;;
23573;SDS011;11965;53.640;10.050;2023-03-31T14:19:31;6.10;;;6.10;;
23573;SDS011;11965;53.640;10.050;2023-03-31T14:22:17;6.32;;;6.32;;
23573;SDS011;11965;53.640;10.050;2023-03-31T14:24:57;5.93;;;5.93;;
23573;SDS011;11965;53.640;10.050;2023-03-31T14:27:41;5.50;;;5.50;;
23573;SDS011;11965;53.640;10.050;2023-03-31T14:30:25;5.21;;;5.21;;
23573;SDS011;11965;53.640;10.050;2023-03-31T14:33:07;5.52;;;5.52;;
23573;SDS011;11965;53.640;10.050;2023-03-31T14:35:50;5.34;;;5.34;;
23573;SDS011;11965;53.640;10.050;2023-03-31T14:38:23;5.36;;;5.36;;
23573;SDS011;11965;53.640;10.050;2023-03-31T14:40:55;5.21;;;5.21;;
23573;SDS011;11965;53.640;10.050;2023-03-31T14:43:26;4.78;;;4.78;;
23573;SDS011;11965;53.640;10.050;2023-03-31T14:45:58;4.42;;;4.42;;
23573;SDS011;11965;53.640;10.050;2023-03-31T14:48:26;4.49;;;4.49;;
23573;SDS011;11965;53.640;10.050;2023-03-31T14:50:57;3.93;;;3.93;;
23573;SDS011;11965;53.640;10.050;2023-03-31T14:53:27;3.78;;;3.78;;
23573;SDS011;11965;53.640;10.050;2023-03-31T14:55:56;3.81;;;3.81;;
23573;SDS011;11965;53.640;10.050;2023-03-31T14:58:29;3.75;;;3.75;;
23573;SDS011;11965;53.640;10.050;2023-03-31T15:01:00;3.66;;;3.66;;
23573;SDS011;11965;53.640;10.050;2023-03-31T15:03:31;3.93;;;3.93;;
23573;SDS011;11965;53.640;10.050;2023-03-31T15:06:01;3.77;;;3.77;;
23573;SDS011;11965;53.640;10.050;2023-03-31T15:08:30;3.35;;;3.35;;
23573;SDS011;11965;53.640;10.050;2023-03-31T15:11:02;3.34;;;3.34;;
23573;SDS011;11965;53.640;10.050;2023-03-31T15:13:33;4.09;;;4.09;;
23573;SDS011;11965;53.640;10.050;2023-03-31T15:16:18;3.68;;;3.68;;
23573;SDS011;11965;53.640;10.050;2023-03-31T15:18:46;3.53;;;3.53;;
23573;SDS011;11965;53.640;10.050;2023-03-31T15:21:20;3.51;;;3.51;;
23573;SDS011;11965;53.640;10.050;2023-03-31T15:23:49;3.56;;;3.56;;
23573;SDS011;11965;53.640;10.050;2023-03-31T15:26:17;3.61;;;3.61;;
23573;SDS011;11965;53.640;10.050;2023-03-31T15:28:51;3.85;;;3.85;;
23573;SDS011;11965;53.640;10.050;2023-03-31T15:31:24;3.98;;;3.98;;
23573;SDS011;11965;53.640;10.050;2023-03-31T15:33:52;4.65;;;4.65;;
23573;SDS011;11965;53.640;10.050;2023-03-31T15:36:21;4.09;;;4.09;;
23573;SDS011;11965;53.640;10.050;2023-03-31T15:38:52;4.18;;;4.18;;
23573;SDS011;11965;53.640;10.050;2023-03-31T15:41:23;4.21;;;4.21;;
23573;SDS011;11965;53.640;10.050;2023-03-31T15:44:03;3.80;;;3.80;;